Renmark, Australia
Current Conditions -  °F | °C
As of 4:00 PM on Sunday 21 Dec 2014 (Local Time) from YMIA Reporting Station
Clear Clear  
Wind Chill: 97°   Ceiling: Unl
Heat Index: 97°   Visibility: 6mi
Dew Point: 34°   Wind: 6mph
Humidity: 11%   Direction: 320°NW
Pressure: 29.8"   Gusts: NA
Location:  34.17°S, 140.75°E
Report Text: YMIA 210600Z AUTO 32005KT 320V020 9999 // NCD 36/01 Q1009
Loading
Personal Weather Stations






























Interactive Weather Map New forecast layout! Learn more

10-Day Weather Forecast

Advertisements
Track Severe Weather on mobile